Time;durP1;ratioP1;P1;durP2;ratioP2;P2;SDS_P1;SDS_P2;PMS_P1;PMS_P2;Temp;Humidity;BMP_temperature;BMP_pressure;BME280_temperature;BME280_humidity;BME280_pressure;Samples;Min_cycle;Max_cycle;Signal;HPM_P1;HPM_P2
2021/07/08 00:01:09;;;;;;;20.57;19.47;;;;;;;;;;5019500;28;20813;-94
2021/07/08 00:03:37;;;;;;;21.07;19.50;;;;;;;;;;5036486;28;20426;-94
2021/07/08 00:06:04;;;;;;;21.03;19.67;;;;;;;;;;5036539;28;20416;-95
2021/07/08 00:08:31;;;;;;;21.33;19.87;;;;;;;;;;5036851;28;20435;-94
2021/07/08 00:10:59;;;;;;;22.00;20.50;;;;;;;;;;5036586;28;20404;-94
2021/07/08 00:13:28;;;;;;;21.27;19.77;;;;;;;;;;5036238;28;20422;-94
2021/07/08 00:15:57;;;;;;;20.67;19.57;;;;;;;;;;5036514;28;20442;-94
2021/07/08 00:18:25;;;;;;;22.83;21.40;;;;;;;;;;5036234;28;20414;-94
2021/07/08 00:20:53;;;;;;;20.70;19.30;;;;;;;;;;5036368;28;20458;-94
2021/07/08 00:23:22;;;;;;;21.13;19.90;;;;;;;;;;5036058;28;20905;-94
2021/07/08 00:25:50;;;;;;;21.70;20.30;;;;;;;;;;5036127;28;20772;-94
2021/07/08 00:28:17;;;;;;;21.77;20.57;;;;;;;;;;5036403;28;20758;-94
2021/07/08 00:30:46;;;;;;;20.47;19.37;;;;;;;;;;5036022;28;20901;-94
2021/07/08 00:33:15;;;;;;;22.17;20.87;;;;;;;;;;5035701;28;20411;-94
2021/07/08 00:35:43;;;;;;;21.20;19.90;;;;;;;;;;5035812;28;20463;-93
2021/07/08 00:38:10;;;;;;;21.40;20.10;;;;;;;;;;5035744;28;20472;-94
2021/07/08 00:40:38;;;;;;;21.30;20.00;;;;;;;;;;5035500;28;20482;-94
2021/07/08 00:43:05;;;;;;;21.47;20.17;;;;;;;;;;5035719;28;20425;-94
2021/07/08 00:45:33;;;;;;;21.47;20.10;;;;;;;;;;5018132;28;20423;-94
2021/07/08 00:48:00;;;;;;;20.80;19.70;;;;;;;;;;5035769;28;20415;-94
2021/07/08 00:50:30;;;;;;;21.17;19.77;;;;;;;;;;5035813;28;20544;-93
2021/07/08 00:52:58;;;;;;;20.77;19.30;;;;;;;;;;5035528;28;20459;-93
2021/07/08 00:55:25;;;;;;;22.03;20.73;;;;;;;;;;5035572;28;20462;-94
2021/07/08 00:57:53;;;;;;;21.77;20.30;;;;;;;;;;5035300;28;20439;-94
2021/07/08 01:00:21;;;;;;;21.73;20.43;;;;;;;;;;5035313;28;20456;-94
2021/07/08 01:02:50;;;;;;;20.77;19.57;;;;;;;;;;5035548;28;20421;-94
2021/07/08 01:05:17;;;;;;;21.13;19.93;;;;;;;;;;5035707;28;20440;-94
2021/07/08 01:07:46;;;;;;;21.47;19.90;;;;;;;;;;5036407;28;20440;-93
2021/07/08 01:10:15;;;;;;;20.43;19.27;;;;;;;;;;5036220;28;20799;-94
2021/07/08 01:12:42;;;;;;;20.47;19.27;;;;;;;;;;5035420;28;20410;-94
2021/07/08 01:15:12;;;;;;;19.90;18.80;;;;;;;;;;5035209;28;20427;-94
2021/07/08 01:17:39;;;;;;;21.17;20.00;;;;;;;;;;5018086;28;20448;-94
2021/07/08 01:20:07;;;;;;;21.83;20.60;;;;;;;;;;5034828;28;20900;-93
2021/07/08 01:22:36;;;;;;;20.43;19.33;;;;;;;;;;5034587;28;20485;-94
2021/07/08 01:25:04;;;;;;;20.53;19.43;;;;;;;;;;5035234;28;20449;-93
2021/07/08 01:27:32;;;;;;;21.07;19.77;;;;;;;;;;5035161;28;20458;-94
2021/07/08 01:30:00;;;;;;;21.50;20.10;;;;;;;;;;5035151;28;20418;-93
2021/07/08 01:32:27;;;;;;;21.00;19.90;;;;;;;;;;5017614;28;20415;-94
2021/07/08 01:34:55;;;;;;;20.80;19.50;;;;;;;;;;5034644;28;20480;-93
2021/07/08 01:37:22;;;;;;;20.80;19.60;;;;;;;;;;5034968;28;20440;-93
2021/07/08 01:39:51;;;;;;;21.93;20.37;;;;;;;;;;5017157;28;20473;-93
2021/07/08 01:42:19;;;;;;;21.00;19.90;;;;;;;;;;5034626;28;20457;-93
2021/07/08 01:44:46;;;;;;;20.57;19.30;;;;;;;;;;5017327;28;20432;-94
2021/07/08 01:47:13;;;;;;;20.70;19.50;;;;;;;;;;5034681;28;20419;-94
2021/07/08 01:49:41;;;;;;;20.57;19.30;;;;;;;;;;5034188;28;20423;-93
2021/07/08 01:52:08;;;;;;;20.57;19.40;;;;;;;;;;5034477;28;20442;-94
2021/07/08 01:54:36;;;;;;;21.73;20.53;;;;;;;;;;5034635;28;20438;-94
2021/07/08 01:57:05;;;;;;;21.47;20.27;;;;;;;;;;5034272;28;20430;-93
2021/07/08 01:59:33;;;;;;;20.93;19.70;;;;;;;;;;5034304;28;20412;-94
2021/07/08 02:02:00;;;;;;;21.20;19.90;;;;;;;;;;5017343;28;20933;-93
2021/07/08 02:04:28;;;;;;;20.77;19.47;;;;;;;;;;5034616;28;20941;-93
2021/07/08 02:06:55;;;;;;;21.13;19.93;;;;;;;;;;5034341;28;20434;-96
2021/07/08 02:09:23;;;;;;;21.30;20.10;;;;;;;;;;5035505;28;20764;-95
2021/07/08 02:11:50;;;;;;;21.40;20.30;;;;;;;;;;5034614;28;20429;-95
2021/07/08 02:14:19;;;;;;;21.77;20.57;;;;;;;;;;5034252;28;20415;-94
2021/07/08 02:16:46;;;;;;;21.93;20.53;;;;;;;;;;5034556;28;20897;-95
2021/07/08 02:19:14;;;;;;;21.33;20.10;;;;;;;;;;5034359;28;20447;-95
2021/07/08 02:21:41;;;;;;;21.53;20.13;;;;;;;;;;5034008;28;20490;-95
2021/07/08 02:24:09;;;;;;;21.07;19.60;;;;;;;;;;5034416;28;20430;-96
2021/07/08 02:26:36;;;;;;;22.00;20.37;;;;;;;;;;5034147;28;20403;-95
2021/07/08 02:29:03;;;;;;;20.80;19.50;;;;;;;;;;5034243;28;20435;-95
2021/07/08 02:31:32;;;;;;;21.73;20.33;;;;;;;;;;5016870;28;20437;-95
2021/07/08 02:34:00;;;;;;;21.67;20.37;;;;;;;;;;5036583;28;20837;-94
2021/07/08 02:36:27;;;;;;;20.90;19.80;;;;;;;;;;5038597;28;20422;-95
2021/07/08 02:38:54;;;;;;;22.07;20.77;;;;;;;;;;5037716;28;20465;-95
2021/07/08 02:41:22;;;;;;;23.30;21.70;;;;;;;;;;5020607;28;20486;-95
2021/07/08 02:43:50;;;;;;;21.20;19.90;;;;;;;;;;5038108;28;20927;-94
2021/07/08 02:46:18;;;;;;;21.13;19.73;;;;;;;;;;5037986;28;20444;-96
2021/07/08 02:48:47;;;;;;;22.73;21.13;;;;;;;;;;5020916;28;20445;-95
2021/07/08 02:51:14;;;;;;;22.10;20.63;;;;;;;;;;5038347;28;20448;-95
2021/07/08 02:53:42;;;;;;;22.13;20.73;;;;;;;;;;5038320;28;20448;-95
2021/07/08 02:56:11;;;;;;;21.93;20.60;;;;;;;;;;5037785;28;20411;-95
2021/07/08 02:58:39;;;;;;;21.70;20.37;;;;;;;;;;5020173;28;20781;-95
2021/07/08 03:01:06;;;;;;;21.83;20.40;;;;;;;;;;5020611;28;20431;-95
2021/07/08 03:03:34;;;;;;;21.40;20.00;;;;;;;;;;5037620;28;20769;-95
2021/07/08 03:06:03;;;;;;;21.30;20.00;;;;;;;;;;5038074;28;20429;-95
2021/07/08 03:08:30;;;;;;;21.27;19.87;;;;;;;;;;5037397;28;20988;-95
2021/07/08 03:10:58;;;;;;;21.03;19.73;;;;;;;;;;5037330;28;20423;-95
2021/07/08 03:13:25;;;;;;;21.73;20.30;;;;;;;;;;5037744;28;20422;-95
2021/07/08 03:15:52;;;;;;;22.23;20.73;;;;;;;;;;5037366;28;20506;-95
2021/07/08 03:18:20;;;;;;;22.30;20.80;;;;;;;;;;5037292;28;20463;-95
2021/07/08 03:20:48;;;;;;;21.13;19.93;;;;;;;;;;5037349;28;20931;-95
2021/07/08 03:23:16;;;;;;;21.20;20.00;;;;;;;;;;5037682;28;20465;-95
2021/07/08 03:25:44;;;;;;;22.53;21.33;;;;;;;;;;5037339;28;20412;-95
2021/07/08 03:28:11;;;;;;;21.97;20.30;;;;;;;;;;5037693;28;20476;-95
2021/07/08 03:30:39;;;;;;;22.00;20.40;;;;;;;;;;5019946;28;20422;-96
2021/07/08 03:33:06;;;;;;;21.43;20.20;;;;;;;;;;5020014;28;20429;-95
2021/07/08 03:35:34;;;;;;;21.07;19.67;;;;;;;;;;5037249;28;20801;-95
2021/07/08 03:38:02;;;;;;;21.07;19.87;;;;;;;;;;5036865;28;20422;-95
2021/07/08 03:40:32;;;;;;;20.73;19.40;;;;;;;;;;5015827;28;20506;-95
2021/07/08 03:43:00;;;;;;;20.83;19.53;;;;;;;;;;5017299;28;20463;-96
2021/07/08 03:45:28;;;;;;;22.77;20.80;;;;;;;;;;5016806;28;20423;-95
2021/07/08 03:47:56;;;;;;;21.57;20.17;;;;;;;;;;5016949;28;20420;-95
2021/07/08 03:50:23;;;;;;;21.70;20.40;;;;;;;;;;5017225;28;20488;-95
2021/07/08 03:52:51;;;;;;;21.40;20.10;;;;;;;;;;5016923;28;20422;-95
2021/07/08 03:55:21;;;;;;;21.10;19.83;;;;;;;;;;5017088;28;20465;-87
2021/07/08 03:57:53;;;;;;;21.53;19.97;;;;;;;;;;5017024;28;20517;-87
2021/07/08 04:00:25;;;;;;;21.23;19.93;;;;;;;;;;5015705;28;20503;-87
2021/07/08 04:02:53;;;;;;;22.13;20.80;;;;;;;;;;5017085;28;20484;-96
2021/07/08 04:05:20;;;;;;;20.23;18.90;;;;;;;;;;5016624;28;20426;-95
2021/07/08 04:07:48;;;;;;;22.00;20.40;;;;;;;;;;5016969;28;20802;-87
2021/07/08 04:10:15;;;;;;;21.43;20.23;;;;;;;;;;5016662;28;20421;-87
2021/07/08 04:12:44;;;;;;;20.63;19.43;;;;;;;;;;5016269;28;20432;-86
2021/07/08 04:15:13;;;;;;;21.73;20.03;;;;;;;;;;5016900;28;20420;-95
2021/07/08 04:17:41;;;;;;;20.63;19.43;;;;;;;;;;5016646;28;20424;-96
2021/07/08 04:20:10;;;;;;;20.63;19.33;;;;;;;;;;5016328;28;20792;-95
2021/07/08 04:22:37;;;;;;;22.20;20.30;;;;;;;;;;5015759;28;20460;-86
2021/07/08 04:25:05;;;;;;;20.90;19.37;;;;;;;;;;5016459;28;20438;-86
2021/07/08 04:27:33;;;;;;;20.90;19.50;;;;;;;;;;5016182;28;20784;-87
2021/07/08 04:30:00;;;;;;;20.50;19.40;;;;;;;;;;5015950;28;20923;-86
2021/07/08 04:32:29;;;;;;;21.00;19.50;;;;;;;;;;5015935;28;20416;-86
2021/07/08 04:34:57;;;;;;;21.73;20.10;;;;;;;;;;5015997;28;20462;-86
2021/07/08 04:37:24;;;;;;;20.40;19.20;;;;;;;;;;5016207;28;20441;-87
2021/07/08 04:39:52;;;;;;;22.00;20.57;;;;;;;;;;5014635;28;20582;-87
2021/07/08 04:42:20;;;;;;;22.40;21.10;;;;;;;;;;5015977;28;20476;-87
2021/07/08 04:44:47;;;;;;;21.80;20.53;;;;;;;;;;5015996;28;20416;-86
2021/07/08 04:47:15;;;;;;;20.90;19.60;;;;;;;;;;5016213;28;20792;-87
2021/07/08 04:49:44;;;;;;;21.70;20.50;;;;;;;;;;5016099;28;20474;-87
2021/07/08 04:52:12;;;;;;;21.17;19.97;;;;;;;;;;5015213;28;20832;-87
2021/07/08 04:54:40;;;;;;;20.60;19.10;;;;;;;;;;5015544;28;20975;-87
2021/07/08 04:57:07;;;;;;;21.00;19.90;;;;;;;;;;5014888;28;20440;-87
2021/07/08 04:59:35;;;;;;;20.63;19.53;;;;;;;;;;5015665;28;20423;-87
2021/07/08 05:02:02;;;;;;;20.80;19.53;;;;;;;;;;5015456;28;20966;-86
2021/07/08 05:04:29;;;;;;;21.47;20.10;;;;;;;;;;5015603;28;20450;-86
2021/07/08 05:06:58;;;;;;;21.03;19.63;;;;;;;;;;5015797;28;20728;-87
2021/07/08 05:09:26;;;;;;;21.80;20.33;;;;;;;;;;5014696;28;20434;-87
2021/07/08 05:11:53;;;;;;;20.37;19.27;;;;;;;;;;5015584;28;20400;-86
2021/07/08 05:14:21;;;;;;;20.30;18.97;;;;;;;;;;5015345;28;20412;-86
2021/07/08 05:16:48;;;;;;;21.80;20.40;;;;;;;;;;5015209;28;20812;-86
2021/07/08 05:19:15;;;;;;;20.67;19.40;;;;;;;;;;5015521;28;20403;-87
2021/07/08 05:21:47;;;;;;;21.20;19.87;;;;;;;;;;5015247;28;20406;-86
2021/07/08 05:24:19;;;;;;;21.50;20.00;;;;;;;;;;5015111;28;20432;-85
2021/07/08 05:26:46;;;;;;;21.47;20.17;;;;;;;;;;5015380;28;20449;-85
2021/07/08 05:29:14;;;;;;;20.67;19.60;;;;;;;;;;5015192;28;20409;-85
2021/07/08 05:31:42;;;;;;;21.90;20.07;;;;;;;;;;5014864;28;20452;-85
2021/07/08 05:34:09;;;;;;;21.07;19.80;;;;;;;;;;5013624;28;20454;-85
2021/07/08 05:36:37;;;;;;;20.57;19.17;;;;;;;;;;4998138;28;20417;-85
2021/07/08 05:39:06;;;;;;;20.83;19.43;;;;;;;;;;5019100;28;20458;-85
2021/07/08 05:41:35;;;;;;;22.10;20.80;;;;;;;;;;5017393;28;20468;-86
2021/07/08 05:44:02;;;;;;;21.43;20.00;;;;;;;;;;5016915;28;20464;-85
2021/07/08 05:46:30;;;;;;;22.77;20.80;;;;;;;;;;5034631;28;20436;-85
2021/07/08 05:48:57;;;;;;;21.07;19.70;;;;;;;;;;5017496;28;20422;-85
2021/07/08 05:51:25;;;;;;;21.20;20.00;;;;;;;;;;5034470;28;20456;-85
2021/07/08 05:53:53;;;;;;;20.50;19.40;;;;;;;;;;5034452;28;20452;-86
2021/07/08 05:56:20;;;;;;;21.53;20.23;;;;;;;;;;5034105;28;20464;-85
2021/07/08 05:58:49;;;;;;;22.27;20.67;;;;;;;;;;5034644;28;20750;-86
2021/07/08 06:01:17;;;;;;;21.50;20.30;;;;;;;;;;5034175;28;20438;-85
2021/07/08 06:03:44;;;;;;;22.50;21.07;;;;;;;;;;5034453;28;20457;-86
2021/07/08 06:06:12;;;;;;;22.07;20.77;;;;;;;;;;5016670;28;20948;-88
2021/07/08 06:08:39;;;;;;;21.83;19.87;;;;;;;;;;5016700;28;20801;-91
2021/07/08 06:11:08;;;;;;;21.17;19.97;;;;;;;;;;5034125;28;20419;-88
2021/07/08 06:13:35;;;;;;;20.80;19.60;;;;;;;;;;5034448;28;20486;-88
2021/07/08 06:16:04;;;;;;;21.60;20.30;;;;;;;;;;5034134;28;20449;-89
2021/07/08 06:18:31;;;;;;;21.27;19.87;;;;;;;;;;5034449;28;20438;-89
2021/07/08 06:20:59;;;;;;;20.90;19.67;;;;;;;;;;5034192;28;20421;-89
2021/07/08 06:23:27;;;;;;;21.97;20.73;;;;;;;;;;5016403;28;20463;-90
2021/07/08 06:25:54;;;;;;;22.83;21.13;;;;;;;;;;5034160;28;20404;-89
2021/07/08 06:28:22;;;;;;;20.87;19.63;;;;;;;;;;5034060;28;20453;-90
2021/07/08 06:30:49;;;;;;;22.57;21.13;;;;;;;;;;5033921;28;20793;-90
2021/07/08 06:33:18;;;;;;;20.87;19.67;;;;;;;;;;5033889;28;20805;-90
2021/07/08 06:35:46;;;;;;;22.30;20.80;;;;;;;;;;5034026;28;20951;-89
2021/07/08 06:38:13;;;;;;;23.03;21.63;;;;;;;;;;5034811;28;20475;-89
2021/07/08 06:40:41;;;;;;;21.50;20.20;;;;;;;;;;5034104;28;20826;-88
2021/07/08 06:43:08;;;;;;;22.67;20.87;;;;;;;;;;5033996;28;20455;-90
2021/07/08 06:45:36;;;;;;;22.60;21.30;;;;;;;;;;5034198;28;20761;-91
2021/07/08 06:48:04;;;;;;;21.77;20.47;;;;;;;;;;5034448;28;20530;-91
2021/07/08 06:50:34;;;;;;;22.33;20.60;;;;;;;;;;5034887;28;20415;-91
2021/07/08 06:53:02;;;;;;;21.53;20.13;;;;;;;;;;5033735;28;20415;-89
2021/07/08 06:55:29;;;;;;;21.47;20.20;;;;;;;;;;5034076;28;20419;-89
2021/07/08 06:57:56;;;;;;;22.57;21.17;;;;;;;;;;5034276;28;20903;-89
2021/07/08 07:00:25;;;;;;;23.00;21.43;;;;;;;;;;5033866;28;20451;-90
2021/07/08 07:02:53;;;;;;;22.53;21.03;;;;;;;;;;5033942;28;20463;-90
2021/07/08 07:05:21;;;;;;;22.50;21.10;;;;;;;;;;5033762;28;20463;-90
2021/07/08 07:07:50;;;;;;;22.30;20.90;;;;;;;;;;5034003;28;20427;-89
2021/07/08 07:10:18;;;;;;;22.30;20.60;;;;;;;;;;5033767;28;20454;-89
2021/07/08 07:12:46;;;;;;;22.07;20.57;;;;;;;;;;5016332;28;20423;-90
2021/07/08 07:15:14;;;;;;;22.07;20.67;;;;;;;;;;5033789;28;20441;-91
2021/07/08 07:17:41;;;;;;;22.23;20.73;;;;;;;;;;5033942;28;20446;-90
2021/07/08 07:20:10;;;;;;;22.50;20.90;;;;;;;;;;5017797;28;21047;-89
2021/07/08 07:22:38;;;;;;;21.50;20.10;;;;;;;;;;5038063;28;20978;-89
2021/07/08 07:25:08;;;;;;;20.93;19.53;;;;;;;;;;5037107;28;20796;-90
2021/07/08 07:27:36;;;;;;;20.87;19.67;;;;;;;;;;5038338;28;20447;-88
2021/07/08 07:30:05;;;;;;;23.30;21.50;;;;;;;;;;5037846;28;20417;-87
2021/07/08 07:32:32;;;;;;;21.40;20.10;;;;;;;;;;5037283;28;20421;-87
2021/07/08 07:35:00;;;;;;;21.83;20.10;;;;;;;;;;5037202;28;20840;-89
2021/07/08 07:37:28;;;;;;;22.00;20.40;;;;;;;;;;5020072;28;20409;-87
2021/07/08 07:39:55;;;;;;;22.40;20.77;;;;;;;;;;5037382;28;20488;-90
2021/07/08 07:42:24;;;;;;;22.27;20.97;;;;;;;;;;5037318;28;20532;-90
2021/07/08 07:44:52;;;;;;;22.80;21.30;;;;;;;;;;5036772;28;20473;-90
2021/07/08 07:47:19;;;;;;;21.20;19.90;;;;;;;;;;5037251;28;20442;-90
2021/07/08 07:49:47;;;;;;;21.20;20.00;;;;;;;;;;5036867;28;20430;-90
2021/07/08 07:52:16;;;;;;;22.57;20.83;;;;;;;;;;5037045;28;20439;-90
2021/07/08 07:54:43;;;;;;;22.43;20.90;;;;;;;;;;5020342;28;20449;-90
2021/07/08 07:57:10;;;;;;;22.07;20.60;;;;;;;;;;5036807;28;20485;-89
2021/07/08 07:59:40;;;;;;;22.40;21.00;;;;;;;;;;5036635;28;20939;-90
2021/07/08 08:02:10;;;;;;;22.40;20.90;;;;;;;;;;5036590;28;20440;-90
2021/07/08 08:04:43;;;;;;;22.53;20.93;;;;;;;;;;5018994;28;20496;-89
2021/07/08 08:09:58;;;;;;;22.47;20.93;;;;;;;;;;5037642;28;20429;-92
2021/07/08 08:12:26;;;;;;;23.40;21.60;;;;;;;;;;5036447;28;20464;-89
2021/07/08 08:14:55;;;;;;;22.20;20.60;;;;;;;;;;5036791;28;20439;-96
2021/07/08 08:17:22;;;;;;;23.17;21.63;;;;;;;;;;5036554;28;20447;-88
2021/07/08 08:19:50;;;;;;;22.27;20.57;;;;;;;;;;5036359;28;20435;-87
2021/07/08 08:22:20;;;;;;;23.40;21.80;;;;;;;;;;5036088;28;20465;-87
2021/07/08 08:24:48;;;;;;;22.83;20.93;;;;;;;;;;5018212;28;20525;-87
2021/07/08 08:27:16;;;;;;;22.47;20.87;;;;;;;;;;5035826;28;20439;-84
2021/07/08 08:29:44;;;;;;;23.17;21.13;;;;;;;;;;5035698;28;20819;-84
2021/07/08 08:32:13;;;;;;;22.93;21.40;;;;;;;;;;5018480;28;20444;-83
2021/07/08 08:34:40;;;;;;;22.47;20.97;;;;;;;;;;5035811;28;20484;-84
2021/07/08 08:37:07;;;;;;;23.53;21.93;;;;;;;;;;5035683;28;20441;-84
2021/07/08 08:39:35;;;;;;;21.83;20.43;;;;;;;;;;5035314;28;20947;-83
2021/07/08 08:42:02;;;;;;;22.53;20.97;;;;;;;;;;5017897;28;20844;-83
2021/07/08 08:44:30;;;;;;;22.07;20.57;;;;;;;;;;5036295;28;21016;-86
2021/07/08 08:46:57;;;;;;;22.77;20.97;;;;;;;;;;5038085;28;20917;-86
2021/07/08 08:49:26;;;;;;;21.50;20.00;;;;;;;;;;5037316;28;20746;-84
2021/07/08 08:51:54;;;;;;;22.60;21.07;;;;;;;;;;5035225;28;20427;-83
2021/07/08 08:54:21;;;;;;;22.40;21.10;;;;;;;;;;5034916;28;20447;-82
2021/07/08 08:56:49;;;;;;;22.47;20.97;;;;;;;;;;5034908;28;20957;-82
2021/07/08 08:59:16;;;;;;;22.73;21.23;;;;;;;;;;5035188;28;20413;-82
2021/07/08 09:01:44;;;;;;;22.17;20.77;;;;;;;;;;5035106;28;20431;-83
2021/07/08 09:04:26;;;;;;;23.83;21.50;;;;;;;;;;5035069;28;20498;-82
2021/07/08 09:06:54;;;;;;;22.30;20.60;;;;;;;;;;5033884;28;20425;-82
2021/07/08 09:09:22;;;;;;;22.37;20.97;;;;;;;;;;5034661;28;20447;-81
2021/07/08 09:11:49;;;;;;;22.50;20.90;;;;;;;;;;5035168;28;20406;-82
2021/07/08 09:14:24;;;;;;;22.10;20.67;;;;;;;;;;5034569;28;20443;-83
2021/07/08 09:16:51;;;;;;;22.20;20.33;;;;;;;;;;5034531;28;20428;-83
2021/07/08 09:19:22;;;;;;;21.00;19.70;;;;;;;;;;5034713;28;20443;-83
2021/07/08 09:21:51;;;;;;;22.37;20.77;;;;;;;;;;5034386;28;20448;-82
2021/07/08 09:24:22;;;;;;;22.33;20.93;;;;;;;;;;5034280;28;20465;-83
2021/07/08 09:26:57;;;;;;;23.30;21.33;;;;;;;;;;5034269;28;20411;-83
2021/07/08 09:29:26;;;;;;;22.80;21.30;;;;;;;;;;5034655;28;20408;-83
2021/07/08 09:31:55;;;;;;;23.30;21.80;;;;;;;;;;5034229;28;20405;-83
2021/07/08 09:34:23;;;;;;;22.43;20.90;;;;;;;;;;5034030;28;20471;-82
2021/07/08 09:37:05;;;;;;;22.33;20.93;;;;;;;;;;5034428;28;20785;-80
2021/07/08 09:39:34;;;;;;;23.37;21.90;;;;;;;;;;5034169;28;20501;-83
2021/07/08 09:42:02;;;;;;;23.27;21.87;;;;;;;;;;5033785;28;20447;-83
2021/07/08 09:44:30;;;;;;;23.10;21.60;;;;;;;;;;5034230;28;20464;-83
2021/07/08 09:46:58;;;;;;;22.33;20.80;;;;;;;;;;5034398;28;20409;-83
2021/07/08 09:49:26;;;;;;;22.13;20.63;;;;;;;;;;5034274;28;20435;-83
2021/07/08 09:51:54;;;;;;;22.37;20.87;;;;;;;;;;5034045;28;20773;-83
2021/07/08 09:57:40;;;;;;;22.93;21.43;;;;;;;;;;5033819;28;20417;-83
2021/07/08 10:00:23;;;;;;;23.50;21.90;;;;;;;;;;5034246;28;20875;-81
2021/07/08 10:02:51;;;;;;;23.50;21.90;;;;;;;;;;5033452;28;20609;-82
2021/07/08 10:05:19;;;;;;;24.23;22.33;;;;;;;;;;5033604;28;20498;-82
2021/07/08 10:07:47;;;;;;;23.77;22.27;;;;;;;;;;5034322;28;20441;-84
2021/07/08 10:10:17;;;;;;;23.33;21.83;;;;;;;;;;5033959;28;20454;-84
2021/07/08 10:12:46;;;;;;;24.03;22.20;;;;;;;;;;5034591;28;20425;-84
2021/07/08 10:15:14;;;;;;;22.70;21.40;;;;;;;;;;5034247;28;20426;-85
2021/07/08 10:17:42;;;;;;;22.73;21.33;;;;;;;;;;5033950;28;20432;-85
2021/07/08 10:20:10;;;;;;;22.87;21.20;;;;;;;;;;5034263;28;20435;-85
2021/07/08 10:22:38;;;;;;;23.70;21.80;;;;;;;;;;5034239;28;20417;-85
2021/07/08 10:25:06;;;;;;;22.80;21.20;;;;;;;;;;5016471;28;20472;-85
2021/07/08 10:27:37;;;;;;;24.10;22.60;;;;;;;;;;5016678;28;20850;-83
2021/07/08 10:30:06;;;;;;;23.87;22.33;;;;;;;;;;5033892;28;20422;-85
2021/07/08 10:32:34;;;;;;;23.67;22.20;;;;;;;;;;5033848;28;20418;-85
2021/07/08 10:35:01;;;;;;;23.97;22.27;;;;;;;;;;5034154;28;20432;-86
2021/07/08 10:37:31;;;;;;;23.93;22.23;;;;;;;;;;5016727;28;20418;-85
2021/07/08 10:39:59;;;;;;;23.83;22.13;;;;;;;;;;5016440;28;20484;-85
2021/07/08 10:42:42;;;;;;;22.40;21.00;;;;;;;;;;5034104;28;20484;-86
2021/07/08 10:45:32;;;;;;;22.20;20.67;;;;;;;;;;5034493;28;20560;-86
2021/07/08 10:48:11;;;;;;;23.13;21.53;;;;;;;;;;5033189;28;20425;-81
2021/07/08 10:50:40;;;;;;;22.50;20.90;;;;;;;;;;5033356;28;20896;-83
2021/07/08 10:53:17;;;;;;;24.00;22.40;;;;;;;;;;5033687;28;20472;-84
2021/07/08 10:55:45;;;;;;;23.50;21.80;;;;;;;;;;5036945;28;20422;-84
2021/07/08 10:58:28;;;;;;;23.63;22.10;;;;;;;;;;5037617;28;20444;-84
2021/07/08 11:00:57;;;;;;;23.43;21.93;;;;;;;;;;5036711;28;20457;-84
2021/07/08 11:03:38;;;;;;;23.63;22.10;;;;;;;;;;5037365;28;20904;-85
2021/07/08 11:06:12;;;;;;;22.63;20.87;;;;;;;;;;5037134;28;20410;-85
2021/07/08 11:08:55;;;;;;;24.10;22.40;;;;;;;;;;5037114;28;20442;-89
2021/07/08 11:11:42;;;;;;;22.77;21.10;;;;;;;;;;5037529;28;20438;-84
2021/07/08 11:14:26;;;;;;;22.50;21.10;;;;;;;;;;5037035;28;20943;-84
2021/07/08 11:16:58;;;;;;;23.43;21.77;;;;;;;;;;5037068;28;20486;-84
2021/07/08 11:19:33;;;;;;;22.97;21.53;;;;;;;;;;5037259;28;20438;-84
2021/07/08 11:22:03;;;;;;;23.07;21.57;;;;;;;;;;5037374;28;20470;-84
2021/07/08 11:24:31;;;;;;;22.97;21.43;;;;;;;;;;5037077;28;20458;-84
2021/07/08 11:26:59;;;;;;;24.10;22.30;;;;;;;;;;5036753;28;20435;-84
2021/07/08 11:29:33;;;;;;;22.50;20.90;;;;;;;;;;5036967;28;20459;-84
2021/07/08 11:32:02;;;;;;;22.70;21.20;;;;;;;;;;5036447;28;20527;-81
2021/07/08 11:34:30;;;;;;;22.10;20.80;;;;;;;;;;5036846;28;20469;-82
2021/07/08 11:36:58;;;;;;;22.60;21.20;;;;;;;;;;5036423;28;20506;-82
2021/07/08 11:39:27;;;;;;;23.80;22.10;;;;;;;;;;5037144;28;20482;-80
2021/07/08 11:41:56;;;;;;;23.70;22.30;;;;;;;;;;5037559;28;20449;-81
2021/07/08 11:44:30;;;;;;;23.43;22.00;;;;;;;;;;5055708;28;20820;-80
2021/07/08 11:46:58;;;;;;;23.47;22.07;;;;;;;;;;5055777;28;20417;-82
2021/07/08 11:49:28;;;;;;;24.17;22.57;;;;;;;;;;5056024;28;20450;-81
2021/07/08 11:51:55;;;;;;;23.80;22.40;;;;;;;;;;5056026;28;20786;-82
2021/07/08 11:54:22;;;;;;;23.73;22.23;;;;;;;;;;5038446;28;20466;-83
2021/07/08 11:56:56;;;;;;;23.90;22.10;;;;;;;;;;5055812;28;20860;-82
2021/07/08 11:59:23;;;;;;;23.37;21.87;;;;;;;;;;5038661;28;20418;-82
2021/07/08 12:01:50;;;;;;;23.33;21.73;;;;;;;;;;5056170;28;20410;-82
2021/07/08 12:04:21;;;;;;;23.80;22.30;;;;;;;;;;5056116;28;20537;-82
2021/07/08 12:06:52;;;;;;;23.60;22.10;;;;;;;;;;5055828;28;20421;-82
2021/07/08 12:09:22;;;;;;;23.40;21.80;;;;;;;;;;5056120;28;20435;-82
2021/07/08 12:11:53;;;;;;;23.90;22.20;;;;;;;;;;5055979;28;20449;-82
2021/07/08 12:14:24;;;;;;;24.53;22.83;;;;;;;;;;5055583;28;20888;-82
2021/07/08 12:16:55;;;;;;;23.47;22.07;;;;;;;;;;5055586;28;20418;-82
2021/07/08 12:19:26;;;;;;;23.70;22.20;;;;;;;;;;5055814;28;20454;-82
2021/07/08 12:21:56;;;;;;;23.67;22.17;;;;;;;;;;5038030;28;20855;-82
2021/07/08 12:24:25;;;;;;;24.30;22.70;;;;;;;;;;5037961;28;20498;-82
2021/07/08 12:26:54;;;;;;;24.13;22.63;;;;;;;;;;5055394;28;20478;-82
2021/07/08 12:29:26;;;;;;;23.77;22.17;;;;;;;;;;5055183;28;20554;-81
2021/07/08 12:31:57;;;;;;;24.63;22.87;;;;;;;;;;5055845;28;20406;-81
2021/07/08 12:34:26;;;;;;;24.20;22.63;;;;;;;;;;5055548;28;20480;-82
2021/07/08 12:36:55;;;;;;;23.97;22.57;;;;;;;;;;5055273;28;20405;-81
2021/07/08 12:39:26;;;;;;;24.77;22.77;;;;;;;;;;5055015;28;20490;-82
2021/07/08 12:41:54;;;;;;;24.57;23.00;;;;;;;;;;5055080;28;20432;-81
2021/07/08 12:44:21;;;;;;;25.17;23.67;;;;;;;;;;5055023;28;20441;-81
2021/07/08 12:46:54;;;;;;;24.80;23.30;;;;;;;;;;5055467;28;20451;-82
2021/07/08 12:49:21;;;;;;;23.30;22.00;;;;;;;;;;5055531;28;20502;-82
2021/07/08 12:51:49;;;;;;;25.63;24.13;;;;;;;;;;5036993;28;20446;-81
2021/07/08 12:54:18;;;;;;;24.60;23.10;;;;;;;;;;5054912;28;20437;-81
2021/07/08 12:57:01;;;;;;;24.97;23.37;;;;;;;;;;5054866;28;20431;-81
2021/07/08 12:59:29;;;;;;;25.33;23.77;;;;;;;;;;5054698;28;20409;-85
2021/07/08 13:01:57;;;;;;;24.90;23.40;;;;;;;;;;5055458;28;20450;-83
2021/07/08 13:04:29;;;;;;;24.70;23.10;;;;;;;;;;5055043;28;20543;-83
2021/07/08 13:06:59;;;;;;;25.27;23.87;;;;;;;;;;5054940;28;20417;-83
2021/07/08 13:09:28;;;;;;;26.30;24.60;;;;;;;;;;5054712;28;20446;-83
2021/07/08 13:11:55;;;;;;;25.80;24.33;;;;;;;;;;5054807;28;20743;-83
2021/07/08 13:14:24;;;;;;;24.80;23.20;;;;;;;;;;5054473;28;20421;-83
2021/07/08 13:17:05;;;;;;;25.60;24.00;;;;;;;;;;5054105;28;20526;-83
2021/07/08 13:19:32;;;;;;;24.10;22.70;;;;;;;;;;5054701;28;20424;-83
2021/07/08 13:22:10;;;;;;;25.20;23.80;;;;;;;;;;5054712;28;20447;-83
2021/07/08 13:24:38;;;;;;;25.30;23.90;;;;;;;;;;5054361;28;20824;-83
2021/07/08 13:27:06;;;;;;;25.43;23.73;;;;;;;;;;5054490;28;20410;-83
2021/07/08 13:29:33;;;;;;;25.27;23.63;;;;;;;;;;5054569;28;20459;-83
2021/07/08 13:32:01;;;;;;;26.23;24.73;;;;;;;;;;5054547;28;20409;-83
2021/07/08 13:34:28;;;;;;;25.47;23.97;;;;;;;;;;5054427;28;20448;-83
2021/07/08 13:36:56;;;;;;;24.27;22.80;;;;;;;;;;5054426;28;20417;-83
2021/07/08 13:39:24;;;;;;;24.47;22.97;;;;;;;;;;5053842;28;20449;-83
2021/07/08 13:42:04;;;;;;;24.30;22.67;;;;;;;;;;5054429;28;20479;-84
2021/07/08 13:44:33;;;;;;;23.73;22.13;;;;;;;;;;5036120;28;20752;-83
2021/07/08 13:47:01;;;;;;;24.30;22.80;;;;;;;;;;5054259;28;20454;-84
2021/07/08 13:49:31;;;;;;;24.97;23.27;;;;;;;;;;5053812;28;20419;-83
2021/07/08 13:51:59;;;;;;;24.00;22.40;;;;;;;;;;5053954;28;20933;-84
2021/07/08 13:54:32;;;;;;;25.30;23.53;;;;;;;;;;5053772;28;20417;-83
2021/07/08 13:57:01;;;;;;;25.30;23.53;;;;;;;;;;5054037;28;20475;-84
2021/07/08 13:59:29;;;;;;;24.33;22.83;;;;;;;;;;5054026;28;20454;-83
2021/07/08 14:01:58;;;;;;;26.33;24.13;;;;;;;;;;5054040;28;20435;-83
2021/07/08 14:04:25;;;;;;;25.87;24.27;;;;;;;;;;5053447;28;20509;-83
2021/07/08 14:06:52;;;;;;;25.53;23.90;;;;;;;;;;5054005;28;20439;-83
2021/07/08 14:09:22;;;;;;;26.37;24.77;;;;;;;;;;5053596;28;20786;-83
2021/07/08 14:11:49;;;;;;;26.57;24.67;;;;;;;;;;5053835;28;20500;-83
2021/07/08 14:14:18;;;;;;;25.67;23.87;;;;;;;;;;5053579;28;20446;-84
2021/07/08 14:16:46;;;;;;;28.03;26.50;;;;;;;;;;5053862;28;20800;-83
2021/07/08 14:19:14;;;;;;;24.77;23.17;;;;;;;;;;5054120;28;20397;-83
2021/07/08 14:21:41;;;;;;;25.37;23.30;;;;;;;;;;5053849;28;20450;-84
2021/07/08 14:24:08;;;;;;;25.07;23.37;;;;;;;;;;5053650;28;20457;-83
2021/07/08 14:26:36;;;;;;;24.83;23.23;;;;;;;;;;5053262;28;20486;-83
2021/07/08 14:29:03;;;;;;;25.77;23.87;;;;;;;;;;5058193;28;20417;-83
2021/07/08 14:31:32;;;;;;;25.27;23.47;;;;;;;;;;5060876;28;20416;-91